logo
Search for airport 
image banner adimage banner adimage banner ad
image banner ad

YWTVW - Waterview Station

Located in Beilba, Australia

ICAO - , IATA -

Data provided by Airmate  

General information

Coordinates: S25°34'55" E148°48'34"
Elevation is 1529 feet MSL.
Magnetic variation is 9° East
View others Airports in Queensland

Operational data

Special qualification required
Current time UTC:
Current local time:
Weather at : - ( 0 km )
METAR: PKWA 162020Z AUTO 06010G19KT 10SM CLR 29/24 A2984 RMK AO2 T02870243
View NOTAMs / SUP AIP / TFR affecting this airport [VIEW]
Communications frequencies: [VIEW]

Runways:

RWY identifierQFULength (ft)Width (ft)SurfaceLDA (ft)
31316°318467DIRT
13136°318467DIRT

Airport contact information

Address: Beilba Australia

Satellite view of YWTVW